Warning: Javascript must be enabled to use all the features on this page!


Page Loading - Please Wait...

Click to hideNews Bulletins

Peak Streamflow for the Nation

USGS 01465880 Southwest Branch Rancocas Creek at Medford NJ

Burlington County, New Jersey
Hydrologic Unit Code 02040202
Latitude  39°53'43", Longitude  74°49'25" NAD83
Drainage area 47.2  square miles
Gage datum 18.38 feet above NGVD29
Output formats
Table
Graph
Tab-separated file
peakfq (watstore) format
Reselect output format
Water
Year
Date Gage
Height
(feet)
Stream-
flow
(cfs)
1983 1983-04-17 12.05 1,300
1984 1984-05-31 10.64 960
1985 1985-09-27 9.46 700
1986 1986-04-17 11.05 1,050
1987 1987-08-11 12.56 1,460
1988 1987-11-12 9.93 800
1989 1989-07-05 15.30 3,300
1990 1989-10-20 9.60 740
1991 1991-01-13 10.35 885
1992 1992-08-19 9.60 740
1993 1992-12-12 12.07 1,310
1994 1994-03-11 11.42 1,150
1995 1995-03-09 8.37 540
1999 1999-09-16   5,0007
2004 2004-07-13 19.70 12,4003,7
2006 2006-06-03 10.60 759
2007 2007-04-16 14.76 2,900
2008 2008-02-13 7.87 419
2009 2009-08-23 9.95 822
2010 2009-12-26 11.73 1,300
2011 2011-08-28 14.31 2,310
2012 2011-12-08 10.36 861
2013 2013-07-01 10.53 898
2014 2014-05-01 14.38 2,360
2015 2015-01-18 10.11 809
2016 2016-02-25 8.62 543
2017 2017-05-13 9.07 568
2018 2018-02-11 11.36 1,080
2019 2019-06-20 14.71 2,630
2020 2020-07-10 9.54 652
?
  Peak Streamflow Qualification Codes.